Weather at Larnaca International Airport

Public forecast

Using degrees Celsius for public forecast. Weather courtesy of forecast.io.

Current aviation weather report (METAR) for Larnaca International Airport

2024/05/21 17:30 (retrieved 15 minutes ago)

LCLK 211730Z 23010KT CAVOK 24/21 Q1010 NOSIG

Aviation forecast (TAF) for Larnaca International Airport

2024/05/21 12:30 (retrieved 5 hours ago)

TAF TAF LCLK 211130Z 2112/2212 20014KT 9999 FEW030 BECMG 2116/2118 26004KT PROB30 TEMPO 2122/2206 1200 VCFG BKN001 BECMG 2208/2210 18013KT